sensor_id;sensor_type;location;lat;lon;timestamp;P1;durP1;ratioP1;P2;durP2;ratioP2
5149;SDS011;2593;52.466;13.436;2023-04-01T00:00:48;4.03;;;1.73;;
5149;SDS011;2593;52.466;13.436;2023-04-01T00:03:15;3.13;;;2.33;;
5149;SDS011;2593;52.466;13.436;2023-04-01T00:05:42;3.93;;;1.93;;
5149;SDS011;2593;52.466;13.436;2023-04-01T00:08:07;3.63;;;1.83;;
5149;SDS011;2593;52.466;13.436;2023-04-01T00:10:33;2.27;;;1.93;;
5149;SDS011;2593;52.466;13.436;2023-04-01T00:12:58;1.70;;;1.60;;
5149;SDS011;2593;52.466;13.436;2023-04-01T00:15:24;3.60;;;2.07;;
5149;SDS011;2593;52.466;13.436;2023-04-01T00:17:50;3.97;;;2.23;;
5149;SDS011;2593;52.466;13.436;2023-04-01T00:20:15;5.67;;;2.90;;
5149;SDS011;2593;52.466;13.436;2023-04-01T00:22:41;2.97;;;2.33;;
5149;SDS011;2593;52.466;13.436;2023-04-01T00:25:08;3.27;;;2.97;;
5149;SDS011;2593;52.466;13.436;2023-04-01T00:27:34;9.03;;;2.43;;
5149;SDS011;2593;52.466;13.436;2023-04-01T00:30:00;3.43;;;2.60;;
5149;SDS011;2593;52.466;13.436;2023-04-01T00:32:26;2.47;;;2.27;;
5149;SDS011;2593;52.466;13.436;2023-04-01T00:34:52;3.80;;;2.37;;
5149;SDS011;2593;52.466;13.436;2023-04-01T00:37:18;3.53;;;2.20;;
5149;SDS011;2593;52.466;13.436;2023-04-01T00:39:45;4.10;;;2.50;;
5149;SDS011;2593;52.466;13.436;2023-04-01T00:42:11;4.00;;;3.00;;
5149;SDS011;2593;52.466;13.436;2023-04-01T00:44:39;4.30;;;3.80;;
5149;SDS011;2593;52.466;13.436;2023-04-01T00:47:04;5.60;;;4.20;;
5149;SDS011;2593;52.466;13.436;2023-04-01T00:49:31;8.67;;;6.00;;
5149;SDS011;2593;52.466;13.436;2023-04-01T00:52:02;8.30;;;5.47;;
5149;SDS011;2593;52.466;13.436;2023-04-01T00:54:29;6.10;;;5.50;;
5149;SDS011;2593;52.466;13.436;2023-04-01T01:00:02;6.70;;;4.63;;
5149;SDS011;2593;52.466;13.436;2023-04-01T01:02:32;4.90;;;4.50;;
5149;SDS011;2593;52.466;13.436;2023-04-01T01:04:59;11.20;;;5.70;;
5149;SDS011;2593;52.466;13.436;2023-04-01T01:07:32;7.03;;;4.67;;
5149;SDS011;2593;52.466;13.436;2023-04-01T01:10:26;6.57;;;4.53;;
5149;SDS011;2593;52.466;13.436;2023-04-01T01:16:24;8.40;;;4.17;;
5149;SDS011;2593;52.466;13.436;2023-04-01T01:19:15;6.27;;;4.20;;
5149;SDS011;2593;52.466;13.436;2023-04-01T01:24:52;4.60;;;4.00;;
5149;SDS011;2593;52.466;13.436;2023-04-01T01:27:20;11.67;;;3.90;;
5149;SDS011;2593;52.466;13.436;2023-04-01T01:35:33;3.43;;;2.83;;
5149;SDS011;2593;52.466;13.436;2023-04-01T01:38:09;5.43;;;2.83;;
5149;SDS011;2593;52.466;13.436;2023-04-01T01:40:39;3.13;;;2.53;;
5149;SDS011;2593;52.466;13.436;2023-04-01T01:43:09;2.70;;;2.43;;
5149;SDS011;2593;52.466;13.436;2023-04-01T01:45:40;5.03;;;3.10;;
5149;SDS011;2593;52.466;13.436;2023-04-01T01:48:11;5.07;;;2.57;;
5149;SDS011;2593;52.466;13.436;2023-04-01T01:50:37;5.90;;;2.67;;
5149;SDS011;2593;52.466;13.436;2023-04-01T01:53:06;3.30;;;2.03;;
5149;SDS011;2593;52.466;13.436;2023-04-01T01:55:34;2.80;;;2.60;;
5149;SDS011;2593;52.466;13.436;2023-04-01T01:58:06;27.03;;;14.00;;
5149;SDS011;2593;52.466;13.436;2023-04-01T02:00:33;41.97;;;17.77;;
5149;SDS011;2593;52.466;13.436;2023-04-01T02:03:00;36.23;;;16.00;;
5149;SDS011;2593;52.466;13.436;2023-04-01T02:05:26;19.80;;;9.70;;
5149;SDS011;2593;52.466;13.436;2023-04-01T02:07:57;5.20;;;3.17;;
5149;SDS011;2593;52.466;13.436;2023-04-01T02:10:40;10.57;;;2.80;;
5149;SDS011;2593;52.466;13.436;2023-04-01T02:13:14;6.47;;;2.50;;
5149;SDS011;2593;52.466;13.436;2023-04-01T02:16:08;3.90;;;2.23;;
5149;SDS011;2593;52.466;13.436;2023-04-01T02:18:40;5.43;;;2.40;;
5149;SDS011;2593;52.466;13.436;2023-04-01T02:21:08;5.33;;;2.17;;
5149;SDS011;2593;52.466;13.436;2023-04-01T02:23:35;2.30;;;2.10;;
5149;SDS011;2593;52.466;13.436;2023-04-01T02:26:02;3.53;;;2.47;;
5149;SDS011;2593;52.466;13.436;2023-04-01T02:28:31;3.03;;;2.23;;
5149;SDS011;2593;52.466;13.436;2023-04-01T02:30:58;3.37;;;2.90;;
5149;SDS011;2593;52.466;13.436;2023-04-01T02:33:25;8.83;;;3.53;;
5149;SDS011;2593;52.466;13.436;2023-04-01T02:35:53;6.77;;;4.53;;
5149;SDS011;2593;52.466;13.436;2023-04-01T02:38:18;4.60;;;3.93;;
5149;SDS011;2593;52.466;13.436;2023-04-01T02:40:48;20.13;;;4.30;;
5149;SDS011;2593;52.466;13.436;2023-04-01T02:43:16;8.80;;;4.07;;
5149;SDS011;2593;52.466;13.436;2023-04-01T02:45:43;5.93;;;5.37;;
5149;SDS011;2593;52.466;13.436;2023-04-01T02:48:09;9.60;;;4.97;;
5149;SDS011;2593;52.466;13.436;2023-04-01T02:50:35;6.00;;;4.80;;
5149;SDS011;2593;52.466;13.436;2023-04-01T02:53:01;6.07;;;4.80;;
5149;SDS011;2593;52.466;13.436;2023-04-01T02:55:28;18.67;;;5.03;;
5149;SDS011;2593;52.466;13.436;2023-04-01T02:57:55;7.80;;;5.43;;
5149;SDS011;2593;52.466;13.436;2023-04-01T03:00:21;6.93;;;4.87;;
5149;SDS011;2593;52.466;13.436;2023-04-01T03:02:47;3.70;;;3.40;;
5149;SDS011;2593;52.466;13.436;2023-04-01T03:05:12;9.70;;;4.60;;
5149;SDS011;2593;52.466;13.436;2023-04-01T03:07:38;7.33;;;3.90;;
5149;SDS011;2593;52.466;13.436;2023-04-01T03:10:05;9.03;;;4.47;;
5149;SDS011;2593;52.466;13.436;2023-04-01T03:12:31;8.70;;;4.70;;
5149;SDS011;2593;52.466;13.436;2023-04-01T03:14:57;5.20;;;4.27;;
5149;SDS011;2593;52.466;13.436;2023-04-01T03:17:23;3.80;;;3.60;;
5149;SDS011;2593;52.466;13.436;2023-04-01T03:19:48;5.00;;;4.50;;
5149;SDS011;2593;52.466;13.436;2023-04-01T03:22:14;5.03;;;4.50;;
5149;SDS011;2593;52.466;13.436;2023-04-01T03:24:40;5.13;;;4.17;;
5149;SDS011;2593;52.466;13.436;2023-04-01T03:27:06;5.07;;;3.83;;
5149;SDS011;2593;52.466;13.436;2023-04-01T03:29:31;10.20;;;3.97;;
5149;SDS011;2593;52.466;13.436;2023-04-01T03:31:57;6.50;;;4.30;;
5149;SDS011;2593;52.466;13.436;2023-04-01T03:34:24;3.90;;;3.60;;
5149;SDS011;2593;52.466;13.436;2023-04-01T03:36:50;7.40;;;3.57;;
5149;SDS011;2593;52.466;13.436;2023-04-01T03:39:17;4.73;;;3.40;;
5149;SDS011;2593;52.466;13.436;2023-04-01T03:41:45;4.90;;;3.63;;
5149;SDS011;2593;52.466;13.436;2023-04-01T03:44:11;4.00;;;3.27;;
5149;SDS011;2593;52.466;13.436;2023-04-01T03:46:37;4.47;;;3.93;;
5149;SDS011;2593;52.466;13.436;2023-04-01T03:49:06;5.70;;;4.37;;
5149;SDS011;2593;52.466;13.436;2023-04-01T03:51:36;9.43;;;4.50;;
5149;SDS011;2593;52.466;13.436;2023-04-01T03:54:03;5.73;;;4.80;;
5149;SDS011;2593;52.466;13.436;2023-04-01T03:56:29;5.63;;;4.93;;
5149;SDS011;2593;52.466;13.436;2023-04-01T03:58:55;7.23;;;4.70;;
5149;SDS011;2593;52.466;13.436;2023-04-01T04:01:21;7.67;;;4.30;;
5149;SDS011;2593;52.466;13.436;2023-04-01T04:03:47;5.63;;;4.00;;
5149;SDS011;2593;52.466;13.436;2023-04-01T04:06:14;8.27;;;4.80;;
5149;SDS011;2593;52.466;13.436;2023-04-01T04:08:40;10.50;;;4.70;;
5149;SDS011;2593;52.466;13.436;2023-04-01T04:11:06;6.53;;;4.20;;
5149;SDS011;2593;52.466;13.436;2023-04-01T04:13:32;4.37;;;3.90;;
5149;SDS011;2593;52.466;13.436;2023-04-01T04:15:58;4.33;;;3.93;;
5149;SDS011;2593;52.466;13.436;2023-04-01T04:18:24;5.00;;;3.90;;
5149;SDS011;2593;52.466;13.436;2023-04-01T04:20:49;8.93;;;4.97;;
5149;SDS011;2593;52.466;13.436;2023-04-01T04:23:16;10.07;;;4.27;;
5149;SDS011;2593;52.466;13.436;2023-04-01T04:26:02;7.30;;;5.20;;
5149;SDS011;2593;52.466;13.436;2023-04-01T04:28:30;4.80;;;4.30;;
5149;SDS011;2593;52.466;13.436;2023-04-01T04:30:56;12.27;;;4.70;;
5149;SDS011;2593;52.466;13.436;2023-04-01T04:33:22;9.87;;;4.23;;
5149;SDS011;2593;52.466;13.436;2023-04-01T04:35:49;7.60;;;4.80;;
5149;SDS011;2593;52.466;13.436;2023-04-01T04:38:16;6.17;;;5.70;;
5149;SDS011;2593;52.466;13.436;2023-04-01T04:40:42;9.60;;;6.10;;
5149;SDS011;2593;52.466;13.436;2023-04-01T04:43:11;6.87;;;5.00;;
5149;SDS011;2593;52.466;13.436;2023-04-01T04:45:39;11.03;;;6.53;;
5149;SDS011;2593;52.466;13.436;2023-04-01T04:48:05;9.00;;;7.50;;
5149;SDS011;2593;52.466;13.436;2023-04-01T04:50:43;7.40;;;6.70;;
5149;SDS011;2593;52.466;13.436;2023-04-01T04:53:12;13.57;;;7.53;;
5149;SDS011;2593;52.466;13.436;2023-04-01T04:55:45;8.90;;;5.80;;
5149;SDS011;2593;52.466;13.436;2023-04-01T04:58:15;13.43;;;5.73;;
5149;SDS011;2593;52.466;13.436;2023-04-01T05:00:41;10.67;;;5.80;;
5149;SDS011;2593;52.466;13.436;2023-04-01T05:03:07;6.57;;;4.90;;
5149;SDS011;2593;52.466;13.436;2023-04-01T05:05:33;10.63;;;4.30;;
5149;SDS011;2593;52.466;13.436;2023-04-01T05:07:58;8.17;;;3.60;;
5149;SDS011;2593;52.466;13.436;2023-04-01T05:10:24;10.10;;;3.60;;
5149;SDS011;2593;52.466;13.436;2023-04-01T05:12:50;7.10;;;3.17;;
5149;SDS011;2593;52.466;13.436;2023-04-01T05:15:15;8.23;;;3.50;;
5149;SDS011;2593;52.466;13.436;2023-04-01T05:17:41;8.70;;;4.50;;
5149;SDS011;2593;52.466;13.436;2023-04-01T05:20:07;4.97;;;3.30;;
5149;SDS011;2593;52.466;13.436;2023-04-01T05:22:33;5.33;;;3.20;;
5149;SDS011;2593;52.466;13.436;2023-04-01T05:24:58;4.43;;;3.60;;
5149;SDS011;2593;52.466;13.436;2023-04-01T05:27:24;5.73;;;3.50;;
5149;SDS011;2593;52.466;13.436;2023-04-01T05:29:50;6.77;;;4.67;;
5149;SDS011;2593;52.466;13.436;2023-04-01T05:32:15;10.90;;;5.17;;
5149;SDS011;2593;52.466;13.436;2023-04-01T05:34:41;7.93;;;5.50;;
5149;SDS011;2593;52.466;13.436;2023-04-01T05:37:06;12.30;;;6.50;;
5149;SDS011;2593;52.466;13.436;2023-04-01T05:39:36;7.10;;;5.23;;
5149;SDS011;2593;52.466;13.436;2023-04-01T05:42:02;14.17;;;5.77;;
5149;SDS011;2593;52.466;13.436;2023-04-01T05:44:30;7.30;;;4.70;;
5149;SDS011;2593;52.466;13.436;2023-04-01T05:46:56;8.90;;;3.97;;
5149;SDS011;2593;52.466;13.436;2023-04-01T05:49:22;9.20;;;4.20;;
5149;SDS011;2593;52.466;13.436;2023-04-01T05:51:47;11.20;;;5.50;;
5149;SDS011;2593;52.466;13.436;2023-04-01T05:54:13;7.60;;;5.70;;
5149;SDS011;2593;52.466;13.436;2023-04-01T05:56:38;13.43;;;5.30;;
5149;SDS011;2593;52.466;13.436;2023-04-01T05:59:04;9.90;;;4.80;;
5149;SDS011;2593;52.466;13.436;2023-04-01T06:01:30;10.80;;;4.93;;
5149;SDS011;2593;52.466;13.436;2023-04-01T06:03:56;6.53;;;4.70;;
5149;SDS011;2593;52.466;13.436;2023-04-01T06:06:25;16.70;;;4.60;;
5149;SDS011;2593;52.466;13.436;2023-04-01T06:08:52;5.37;;;4.20;;
5149;SDS011;2593;52.466;13.436;2023-04-01T06:11:34;7.10;;;4.37;;
5149;SDS011;2593;52.466;13.436;2023-04-01T06:32:57;9.23;;;3.23;;
5149;SDS011;2593;52.466;13.436;2023-04-01T06:36:10;6.93;;;3.80;;
5149;SDS011;2593;52.466;13.436;2023-04-01T06:46:37;9.63;;;3.70;;
5149;SDS011;2593;52.466;13.436;2023-04-01T06:52:29;9.10;;;4.50;;
5149;SDS011;2593;52.466;13.436;2023-04-01T06:55:17;7.80;;;4.37;;
5149;SDS011;2593;52.466;13.436;2023-04-01T06:57:52;11.33;;;4.00;;
5149;SDS011;2593;52.466;13.436;2023-04-01T07:03:35;10.83;;;4.60;;
5149;SDS011;2593;52.466;13.436;2023-04-01T07:05:38;10.30;;;4.10;;
5149;SDS011;2593;52.466;13.436;2023-04-01T07:08:05;8.57;;;4.30;;
5149;SDS011;2593;52.466;13.436;2023-04-01T07:10:39;9.47;;;4.30;;
5149;SDS011;2593;52.466;13.436;2023-04-01T07:13:19;10.77;;;3.57;;
5149;SDS011;2593;52.466;13.436;2023-04-01T07:24:04;4.20;;;3.80;;
5149;SDS011;2593;52.466;13.436;2023-04-01T07:26:34;5.27;;;3.10;;
5149;SDS011;2593;52.466;13.436;2023-04-01T07:28:59;7.40;;;3.80;;
5149;SDS011;2593;52.466;13.436;2023-04-01T07:34:24;8.03;;;4.60;;
5149;SDS011;2593;52.466;13.436;2023-04-01T07:48:24;8.13;;;3.87;;
5149;SDS011;2593;52.466;13.436;2023-04-01T07:51:18;13.43;;;5.67;;
5149;SDS011;2593;52.466;13.436;2023-04-01T07:54:00;10.37;;;3.23;;
5149;SDS011;2593;52.466;13.436;2023-04-01T08:07:07;3.77;;;2.40;;
5149;SDS011;2593;52.466;13.436;2023-04-01T08:15:18;6.87;;;2.17;;
5149;SDS011;2593;52.466;13.436;2023-04-01T08:18:21;6.87;;;2.87;;
5149;SDS011;2593;52.466;13.436;2023-04-01T08:21:20;6.20;;;2.40;;
5149;SDS011;2593;52.466;13.436;2023-04-01T08:24:04;3.47;;;2.60;;
5149;SDS011;2593;52.466;13.436;2023-04-01T08:26:52;11.43;;;2.90;;
5149;SDS011;2593;52.466;13.436;2023-04-01T08:29:23;6.90;;;3.07;;
5149;SDS011;2593;52.466;13.436;2023-04-01T08:32:16;6.60;;;2.77;;
5149;SDS011;2593;52.466;13.436;2023-04-01T08:34:48;6.70;;;3.00;;
5149;SDS011;2593;52.466;13.436;2023-04-01T08:37:24;5.87;;;3.20;;
5149;SDS011;2593;52.466;13.436;2023-04-01T08:39:56;15.73;;;4.20;;
5149;SDS011;2593;52.466;13.436;2023-04-01T08:56:20;4.93;;;4.43;;
5149;SDS011;2593;52.466;13.436;2023-04-01T08:58:58;6.03;;;4.93;;
5149;SDS011;2593;52.466;13.436;2023-04-01T09:02:25;10.50;;;6.50;;
5149;SDS011;2593;52.466;13.436;2023-04-01T09:05:26;9.23;;;6.03;;
5149;SDS011;2593;52.466;13.436;2023-04-01T09:08:17;13.17;;;6.47;;
5149;SDS011;2593;52.466;13.436;2023-04-01T09:11:12;9.57;;;6.83;;
5149;SDS011;2593;52.466;13.436;2023-04-01T09:27:28;10.73;;;6.73;;
5149;SDS011;2593;52.466;13.436;2023-04-01T09:43:58;13.43;;;8.77;;
5149;SDS011;2593;52.466;13.436;2023-04-01T10:01:25;21.80;;;13.00;;
5149;SDS011;2593;52.466;13.436;2023-04-01T10:12:42;15.63;;;10.30;;
5149;SDS011;2593;52.466;13.436;2023-04-01T10:18:34;18.37;;;12.50;;
5149;SDS011;2593;52.466;13.436;2023-04-01T10:30:02;23.53;;;15.30;;
5149;SDS011;2593;52.466;13.436;2023-04-01T11:03:32;14.83;;;10.90;;
5149;SDS011;2593;52.466;13.436;2023-04-01T11:28:33;9.13;;;6.97;;
5149;SDS011;2593;52.466;13.436;2023-04-01T11:33:33;7.87;;;6.17;;
5149;SDS011;2593;52.466;13.436;2023-04-01T11:36:11;13.43;;;7.03;;
5149;SDS011;2593;52.466;13.436;2023-04-01T11:39:15;6.73;;;6.00;;
5149;SDS011;2593;52.466;13.436;2023-04-01T11:42:07;8.13;;;6.50;;
5149;SDS011;2593;52.466;13.436;2023-04-01T11:44:57;8.70;;;6.30;;
5149;SDS011;2593;52.466;13.436;2023-04-01T11:47:45;15.70;;;7.00;;
5149;SDS011;2593;52.466;13.436;2023-04-01T11:59:04;6.70;;;5.40;;
5149;SDS011;2593;52.466;13.436;2023-04-01T12:04:27;13.30;;;6.10;;
5149;SDS011;2593;52.466;13.436;2023-04-01T12:10:02;8.87;;;6.63;;
5149;SDS011;2593;52.466;13.436;2023-04-01T12:15:34;8.57;;;5.23;;
5149;SDS011;2593;52.466;13.436;2023-04-01T12:18:25;5.20;;;4.70;;
5149;SDS011;2593;52.466;13.436;2023-04-01T12:40:46;7.17;;;6.23;;
5149;SDS011;2593;52.466;13.436;2023-04-01T12:46:29;9.80;;;6.43;;
5149;SDS011;2593;52.466;13.436;2023-04-01T12:49:01;10.83;;;7.27;;
5149;SDS011;2593;52.466;13.436;2023-04-01T13:02:25;7.60;;;6.77;;
5149;SDS011;2593;52.466;13.436;2023-04-01T13:29:41;18.87;;;11.40;;
5149;SDS011;2593;52.466;13.436;2023-04-01T13:32:19;14.20;;;9.33;;
5149;SDS011;2593;52.466;13.436;2023-04-01T13:40:43;10.10;;;8.73;;
5149;SDS011;2593;52.466;13.436;2023-04-01T13:48:45;11.83;;;8.93;;
5149;SDS011;2593;52.466;13.436;2023-04-01T14:08:20;13.20;;;9.33;;
5149;SDS011;2593;52.466;13.436;2023-04-01T14:16:59;9.87;;;7.87;;
5149;SDS011;2593;52.466;13.436;2023-04-01T14:22:39;12.07;;;8.53;;
5149;SDS011;2593;52.466;13.436;2023-04-01T14:27:51;19.53;;;11.97;;
5149;SDS011;2593;52.466;13.436;2023-04-01T14:36:21;12.70;;;10.90;;
5149;SDS011;2593;52.466;13.436;2023-04-01T14:45:01;17.63;;;10.40;;
5149;SDS011;2593;52.466;13.436;2023-04-01T14:58:12;8.00;;;6.97;;
5149;SDS011;2593;52.466;13.436;2023-04-01T15:03:14;6.70;;;5.63;;
5149;SDS011;2593;52.466;13.436;2023-04-01T15:05:47;7.57;;;6.83;;
5149;SDS011;2593;52.466;13.436;2023-04-01T15:08:25;8.50;;;7.13;;
5149;SDS011;2593;52.466;13.436;2023-04-01T15:10:59;11.73;;;8.97;;
5149;SDS011;2593;52.466;13.436;2023-04-01T15:16:00;10.47;;;8.97;;
5149;SDS011;2593;52.466;13.436;2023-04-01T15:43:38;16.83;;;10.50;;
5149;SDS011;2593;52.466;13.436;2023-04-01T15:57:22;9.30;;;8.30;;
5149;SDS011;2593;52.466;13.436;2023-04-01T16:00:09;10.53;;;7.70;;
5149;SDS011;2593;52.466;13.436;2023-04-01T16:05:51;8.83;;;7.37;;
5149;SDS011;2593;52.466;13.436;2023-04-01T16:08:35;8.17;;;6.67;;
5149;SDS011;2593;52.466;13.436;2023-04-01T16:14:22;9.80;;;6.60;;
5149;SDS011;2593;52.466;13.436;2023-04-01T16:17:12;12.27;;;8.60;;
5149;SDS011;2593;52.466;13.436;2023-04-01T16:22:53;11.73;;;9.60;;
5149;SDS011;2593;52.466;13.436;2023-04-01T16:26:01;17.93;;;11.00;;
5149;SDS011;2593;52.466;13.436;2023-04-01T16:28:47;15.13;;;11.47;;
5149;SDS011;2593;52.466;13.436;2023-04-01T16:42:51;14.30;;;10.77;;
5149;SDS011;2593;52.466;13.436;2023-04-01T16:45:36;20.70;;;11.10;;
5149;SDS011;2593;52.466;13.436;2023-04-01T16:48:22;15.83;;;12.20;;
5149;SDS011;2593;52.466;13.436;2023-04-01T16:50:59;19.40;;;11.43;;
5149;SDS011;2593;52.466;13.436;2023-04-01T16:53:44;18.20;;;9.60;;
5149;SDS011;2593;52.466;13.436;2023-04-01T16:56:39;14.70;;;10.80;;
5149;SDS011;2593;52.466;13.436;2023-04-01T17:02:02;13.97;;;11.27;;
5149;SDS011;2593;52.466;13.436;2023-04-01T17:07:46;12.60;;;10.03;;
5149;SDS011;2593;52.466;13.436;2023-04-01T17:13:29;15.57;;;11.20;;
5149;SDS011;2593;52.466;13.436;2023-04-01T17:21:18;16.33;;;10.83;;
5149;SDS011;2593;52.466;13.436;2023-04-01T17:23:51;17.77;;;11.70;;
5149;SDS011;2593;52.466;13.436;2023-04-01T17:42:18;19.40;;;12.90;;
5149;SDS011;2593;52.466;13.436;2023-04-01T17:44:53;27.93;;;14.33;;
5149;SDS011;2593;52.466;13.436;2023-04-01T17:58:03;14.13;;;10.63;;
5149;SDS011;2593;52.466;13.436;2023-04-01T18:00:57;16.07;;;11.13;;
5149;SDS011;2593;52.466;13.436;2023-04-01T18:04:24;19.60;;;13.67;;
5149;SDS011;2593;52.466;13.436;2023-04-01T18:13:17;14.83;;;10.10;;
5149;SDS011;2593;52.466;13.436;2023-04-01T18:16:02;13.20;;;10.00;;
5149;SDS011;2593;52.466;13.436;2023-04-01T18:26:34;12.43;;;9.53;;
5149;SDS011;2593;52.466;13.436;2023-04-01T18:32:01;18.03;;;10.97;;
5149;SDS011;2593;52.466;13.436;2023-04-01T18:37:40;13.77;;;8.20;;
5149;SDS011;2593;52.466;13.436;2023-04-01T18:45:54;12.70;;;7.90;;
5149;SDS011;2593;52.466;13.436;2023-04-01T18:51:16;11.63;;;7.90;;
5149;SDS011;2593;52.466;13.436;2023-04-01T18:53:57;11.13;;;7.87;;
5149;SDS011;2593;52.466;13.436;2023-04-01T18:59:20;9.83;;;6.80;;
5149;SDS011;2593;52.466;13.436;2023-04-01T19:02:13;12.53;;;7.00;;
5149;SDS011;2593;52.466;13.436;2023-04-01T19:19:05;15.50;;;8.10;;
5149;SDS011;2593;52.466;13.436;2023-04-01T19:21:54;22.50;;;8.80;;
5149;SDS011;2593;52.466;13.436;2023-04-01T19:24:34;15.53;;;9.30;;
5149;SDS011;2593;52.466;13.436;2023-04-01T19:40:57;12.13;;;9.37;;
5149;SDS011;2593;52.466;13.436;2023-04-01T19:46:42;16.43;;;9.33;;
5149;SDS011;2593;52.466;13.436;2023-04-01T19:51:46;12.50;;;8.63;;
5149;SDS011;2593;52.466;13.436;2023-04-01T19:59:39;12.10;;;9.23;;
5149;SDS011;2593;52.466;13.436;2023-04-01T20:02:50;12.50;;;8.80;;
5149;SDS011;2593;52.466;13.436;2023-04-01T20:05:19;12.13;;;8.50;;
5149;SDS011;2593;52.466;13.436;2023-04-01T20:08:07;13.80;;;10.03;;
5149;SDS011;2593;52.466;13.436;2023-04-01T20:10:50;18.73;;;8.90;;
5149;SDS011;2593;52.466;13.436;2023-04-01T20:13:21;12.07;;;8.77;;
5149;SDS011;2593;52.466;13.436;2023-04-01T20:16:08;14.27;;;8.07;;
5149;SDS011;2593;52.466;13.436;2023-04-01T20:18:37;13.73;;;8.40;;
5149;SDS011;2593;52.466;13.436;2023-04-01T20:26:35;11.43;;;8.30;;
5149;SDS011;2593;52.466;13.436;2023-04-01T20:31:59;21.30;;;9.27;;
5149;SDS011;2593;52.466;13.436;2023-04-01T20:35:27;18.90;;;8.80;;
5149;SDS011;2593;52.466;13.436;2023-04-01T20:40:47;15.90;;;9.00;;
5149;SDS011;2593;52.466;13.436;2023-04-01T20:51:39;19.70;;;9.67;;
5149;SDS011;2593;52.466;13.436;2023-04-01T21:02:20;15.90;;;9.00;;
5149;SDS011;2593;52.466;13.436;2023-04-01T21:07:47;14.80;;;8.47;;
5149;SDS011;2593;52.466;13.436;2023-04-01T21:14:07;12.13;;;8.90;;
5149;SDS011;2593;52.466;13.436;2023-04-01T21:16:47;13.90;;;7.70;;
5149;SDS011;2593;52.466;13.436;2023-04-01T21:46:49;12.23;;;6.80;;
5149;SDS011;2593;52.466;13.436;2023-04-01T22:00:38;12.23;;;7.53;;
5149;SDS011;2593;52.466;13.436;2023-04-01T22:06:16;9.07;;;6.80;;
5149;SDS011;2593;52.466;13.436;2023-04-01T22:08:59;13.57;;;7.10;;
5149;SDS011;2593;52.466;13.436;2023-04-01T22:11:58;13.10;;;7.23;;
5149;SDS011;2593;52.466;13.436;2023-04-01T22:14:58;8.03;;;6.70;;
5149;SDS011;2593;52.466;13.436;2023-04-01T22:20:46;12.27;;;6.13;;
5149;SDS011;2593;52.466;13.436;2023-04-01T22:26:29;10.10;;;6.43;;
5149;SDS011;2593;52.466;13.436;2023-04-01T22:31:53;8.90;;;5.50;;
5149;SDS011;2593;52.466;13.436;2023-04-01T22:34:22;11.03;;;6.80;;
5149;SDS011;2593;52.466;13.436;2023-04-01T22:50:23;11.40;;;5.23;;
5149;SDS011;2593;52.466;13.436;2023-04-01T22:55:47;6.57;;;4.50;;
5149;SDS011;2593;52.466;13.436;2023-04-01T22:58:17;6.43;;;5.10;;
5149;SDS011;2593;52.466;13.436;2023-04-01T23:00:51;7.53;;;4.90;;
5149;SDS011;2593;52.466;13.436;2023-04-01T23:03:24;7.93;;;5.13;;
5149;SDS011;2593;52.466;13.436;2023-04-01T23:05:56;7.77;;;4.83;;
5149;SDS011;2593;52.466;13.436;2023-04-01T23:11:18;5.20;;;4.30;;
5149;SDS011;2593;52.466;13.436;2023-04-01T23:13:52;8.70;;;5.10;;
5149;SDS011;2593;52.466;13.436;2023-04-01T23:16:43;7.77;;;4.67;;
5149;SDS011;2593;52.466;13.436;2023-04-01T23:19:29;8.30;;;4.40;;
5149;SDS011;2593;52.466;13.436;2023-04-01T23:22:16;6.07;;;4.47;;
5149;SDS011;2593;52.466;13.436;2023-04-01T23:30:58;9.93;;;4.63;;
5149;SDS011;2593;52.466;13.436;2023-04-01T23:35:59;12.30;;;4.97;;
5149;SDS011;2593;52.466;13.436;2023-04-01T23:38:35;6.57;;;4.50;;
5149;SDS011;2593;52.466;13.436;2023-04-01T23:41:03;4.20;;;3.80;;
5149;SDS011;2593;52.466;13.436;2023-04-01T23:43:31;6.60;;;3.70;;
5149;SDS011;2593;52.466;13.436;2023-04-01T23:46:03;6.83;;;3.83;;
5149;SDS011;2593;52.466;13.436;2023-04-01T23:48:36;6.07;;;3.87;;
5149;SDS011;2593;52.466;13.436;2023-04-01T23:51:04;5.27;;;4.13;;
5149;SDS011;2593;52.466;13.436;2023-04-01T23:53:41;5.80;;;4.30;;
5149;SDS011;2593;52.466;13.436;2023-04-01T23:56:09;5.13;;;3.43;;
5149;SDS011;2593;52.466;13.436;2023-04-01T23:58:45;6.00;;;3.90;;
